< Typhoon 196513 1965 Season Typhoon 196515 >
Typhoon 196514 (IVY)
General InformationTrack Information on Google Maps || Disaster Info.ResourceGoogle EarthGE AnimationAtom FeedGeoJSON
Detalied Best Track (Time Zone = UTC)
Year Month Day Hour Lat. Long. Pressure (hPa) Wind (kt) Class Image Chart
1965 7 27 00 13.8 133.1 1006 0 2 -- Chart
1965 7 27 06 13.9 132.1 1006 0 2 -- Chart
1965 7 27 12 14.0 131.0 1000 0 2 -- Chart
1965 7 27 18 14.0 130.2 1000 0 2 -- Chart
1965 7 28 00 14.1 129.5 990 0 9 -- Chart
1965 7 28 06 14.4 128.9 990 0 9 -- Chart
1965 7 28 12 14.6 128.2 990 0 9 -- Chart
1965 7 28 18 14.7 127.7 990 0 9 -- Chart
1965 7 29 00 14.9 127.0 990 0 9 -- Chart
1965 7 29 06 14.8 126.8 990 0 9 -- Chart
1965 7 29 12 14.7 126.7 990 0 9 -- Chart
1965 7 29 18 14.5 126.2 995 0 9 -- Chart
1965 7 30 00 14.0 126.0 995 0 9 -- Chart
1965 7 30 06 13.9 126.6 990 0 9 -- Chart
1965 7 30 12 13.3 127.0 990 0 9 -- Chart
1965 7 30 18 13.1 127.9 995 0 9 -- Chart
1965 7 31 00 13.1 129.2 995 0 9 -- Chart
1965 7 31 06 13.5 130.5 995 0 9 -- Chart
1965 7 31 12 14.5 131.9 995 0 9 -- Chart
1965 7 31 18 15.8 132.6 995 0 9 -- Chart
1965 8 1 00 17.0 132.0 994 0 9 -- Chart
Japan Meteorological Agency Best Track Data | Correction Date : 1989-06-01
< Typhoon 196513 1965 Season Typhoon 196515 >

Help